Time;durP1;ratioP1;P1;durP2;ratioP2;P2;SDS_P1;SDS_P2;PMS_P1;PMS_P2;Temp;Humidity;BMP_temperature;BMP_pressure;BME280_temperature;BME280_humidity;BME280_pressure;Samples;Min_cycle;Max_cycle;Signal;HPM_P1;HPM_P2
2022/12/27 00:00:52;;;;;;;5.65;1.50;;;;;;;5.74;96.27;101307.19;8289105;28;20037;-52
2022/12/27 00:04:53;;;;;;;10.30;1.77;;;;;;;5.74;96.54;101314.38;8290324;28;20046;-50
2022/12/27 00:08:54;;;;;;;9.15;1.60;;;;;;;5.78;96.63;101321.28;8289456;28;20045;-51
2022/12/27 00:12:54;;;;;;;7.95;1.63;;;;;;;5.83;96.32;101321.94;8289434;28;20046;-54
2022/12/27 00:16:55;;;;;;;9.60;1.73;;;;;;;5.80;97.00;101335.50;8289338;28;20092;-50
2022/12/27 00:20:57;;;;;;;4.75;1.30;;;;;;;5.78;97.16;101342.75;8288900;28;20065;-50
2022/12/27 00:24:58;;;;;;;6.10;1.67;;;;;;;5.74;97.82;101335.84;8290087;28;20136;-51
2022/12/27 00:28:59;;;;;;;3.75;1.42;;;;;;;5.75;97.91;101340.25;8289136;28;20049;-51
2022/12/27 00:33:00;;;;;;;11.95;2.67;;;;;;;5.81;98.41;101342.56;8287032;28;20037;-50
2022/12/27 00:37:00;;;;;;;7.32;1.80;;;;;;;5.86;98.21;101341.38;8288916;28;20121;-50
2022/12/27 00:41:01;;;;;;;8.68;1.48;;;;;;;5.85;98.47;101333.41;8288778;28;20037;-50
2022/12/27 00:45:02;;;;;;;8.82;2.47;;;;;;;5.88;97.33;101339.47;8287454;28;20034;-53
2022/12/27 00:49:03;;;;;;;13.85;1.60;;;;;;;5.94;97.52;101344.47;8288438;28;20072;-51
2022/12/27 00:53:04;;;;;;;9.75;1.63;;;;;;;5.90;98.52;101342.06;8289043;28;20046;-52
2022/12/27 00:57:04;;;;;;;5.55;1.58;;;;;;;5.91;99.06;101343.78;8288663;28;20438;-50
2022/12/27 01:01:08;;;;;;;7.40;1.67;;;;;;;5.88;99.39;101334.09;8287586;28;20042;-51
2022/12/27 01:05:08;;;;;;;5.63;1.10;;;;;;;5.96;99.11;101336.34;8290253;28;20038;-50
2022/12/27 01:09:09;;;;;;;10.90;1.88;;;;;;;5.98;99.24;101339.81;8290118;28;20281;-50
2022/12/27 01:13:11;;;;;;;6.95;1.77;;;;;;;5.98;99.91;101342.47;8289771;28;20034;-50
2022/12/27 01:17:11;;;;;;;5.25;1.83;;;;;;;6.03;99.63;101351.97;8289492;28;20038;-54
2022/12/27 01:21:13;;;;;;;12.20;1.95;;;;;;;6.09;99.48;101353.44;8289537;28;20068;-50
2022/12/27 01:25:14;;;;;;;6.00;1.55;;;;;;;6.08;99.24;101362.44;8290091;28;20112;-49
2022/12/27 01:29:14;;;;;;;6.88;1.40;;;;;;;6.07;99.65;101366.94;8285803;28;20034;-49
2022/12/27 01:33:15;;;;;;;6.65;1.02;;;;;;;6.10;99.47;101368.56;8287538;28;20519;-51
2022/12/27 01:37:15;;;;;;;5.13;2.15;;;;;;;6.10;99.76;101371.25;8288401;28;20496;-49
2022/12/27 01:42:53;;;;;;;10.20;1.73;;;;;;;6.11;99.86;101372.13;8289174;28;20137;-51
2022/12/27 01:45:41;;;;;;;13.57;1.58;;;;;;;6.11;99.97;101382.84;8295233;28;20041;-49
2022/12/27 01:49:55;;;;;;;7.15;1.73;;;;;;;6.09;99.93;101382.94;8294779;28;20038;-52
2022/12/27 01:53:56;;;;;;;13.60;1.92;;;;;;;6.14;99.71;101398.78;8287783;28;20041;-53
2022/12/27 01:58:05;;;;;;;8.68;1.40;;;;;;;6.17;99.82;101398.59;8294522;28;20089;-51
2022/12/27 02:02:06;;;;;;;5.70;2.42;;;;;;;6.19;99.92;101397.53;8295296;28;20049;-49
2022/12/27 02:06:09;;;;;;;7.75;1.33;;;;;;;6.14;100.00;101393.41;8293588;28;20042;-49
2022/12/27 02:10:10;;;;;;;9.07;1.80;;;;;;;6.21;100.00;101394.78;8295478;28;20455;-49
2022/12/27 02:14:12;;;;;;;11.85;1.90;;;;;;;6.19;100.00;101402.91;8295675;28;20069;-51
2022/12/27 02:18:12;;;;;;;5.10;1.40;;;;;;;6.21;100.00;101406.38;8294989;28;20041;-49
2022/12/27 02:24:15;;;;;;;6.10;1.42;;;;;;;6.22;100.00;101408.09;8294993;28;20048;-48
2022/12/27 02:27:23;;;;;;;9.00;1.92;;;;;;;6.19;100.00;101410.97;8294636;28;20054;-49
2022/12/27 02:35:56;;;;;;;13.73;1.70;;;;;;;6.10;100.00;101408.81;8412880;27;20473;-51
2022/12/27 02:53:02;;;;;;;6.40;1.42;;;;;;;6.07;100.00;101417.06;8397908;27;20032;-51
2022/12/27 02:57:42;;;;;;;10.90;1.52;;;;;;;6.15;100.00;101406.75;8409142;27;20397;-49
2022/12/27 03:03:23;;;;;;;8.02;1.40;;;;;;;6.13;100.00;101414.00;8400067;27;20460;-49
2022/12/27 03:15:56;;;;;;;11.95;2.03;;;;;;;6.03;100.00;101420.03;8396939;27;20036;-49
2022/12/27 03:25:30;;;;;;;5.75;1.42;;;;;;;6.01;100.00;101409.41;8400756;27;20068;-49
2022/12/27 03:33:13;;;;;;;12.38;1.92;;;;;;;6.04;100.00;101414.59;8373365;28;20090;-50
2022/12/27 03:38:19;;;;;;;12.20;2.50;;;;;;;6.11;100.00;101410.56;8363340;28;20098;-52
2022/12/27 03:43:23;;;;;;;6.78;1.75;;;;;;;6.13;100.00;101419.38;8376720;28;20040;-53
2022/12/27 03:46:42;;;;;;;7.68;1.48;;;;;;;6.09;100.00;101423.22;8413246;27;20357;-51
2022/12/27 03:50:50;;;;;;;8.80;1.98;;;;;;;6.14;100.00;101437.25;8413783;27;20097;-52
2022/12/27 03:54:52;;;;;;;13.05;2.05;;;;;;;6.10;100.00;101446.41;8405123;27;20040;-53
2022/12/27 03:58:56;;;;;;;9.45;1.50;;;;;;;6.07;100.00;101441.22;8413811;27;20524;-51
2022/12/27 04:02:56;;;;;;;9.88;1.85;;;;;;;6.12;100.00;101439.13;8414976;28;20064;-49
2022/12/27 04:06:57;;;;;;;7.30;1.95;;;;;;;6.13;100.00;101446.22;8414146;28;20576;-49
2022/12/27 04:37:01;;;;;;;5.47;1.65;;;;;;;6.10;100.00;101435.66;8358328;28;20071;-51
2022/12/27 04:55:16;;;;;;;6.20;1.42;;;;;;;6.19;100.00;101429.75;8357899;28;20089;-50
2022/12/27 05:02:01;;;;;;;4.28;1.35;;;;;;;6.11;100.00;101436.53;8359839;28;20109;-50
2022/12/27 05:02:58;;;;;;;4.50;1.70;;;;;;;6.09;100.00;101433.94;8377509;28;20444;-51
2022/12/27 05:13:58;;;;;;;10.57;2.00;;;;;;;6.09;100.00;101444.69;8379519;28;20041;-51
2022/12/27 05:15:40;;;;;;;12.48;1.42;;;;;;;6.07;100.00;101454.63;8384173;28;20132;-49
2022/12/27 05:19:40;;;;;;;10.40;1.45;;;;;;;6.17;99.92;101452.28;8376656;28;20116;-49
2022/12/27 05:28:04;;;;;;;8.55;1.45;;;;;;;6.22;99.82;101467.16;8356187;28;20041;-50
2022/12/27 05:32:05;;;;;;;10.48;1.45;;;;;;;6.19;100.00;101456.59;8384035;28;20211;-52
2022/12/27 05:36:06;;;;;;;8.70;2.60;;;;;;;6.25;100.00;101471.50;8368709;28;20158;-50
2022/12/27 05:40:07;;;;;;;7.38;2.00;;;;;;;6.18;100.00;101468.31;8374508;28;20701;-51
2022/12/27 05:44:08;;;;;;;10.20;1.85;;;;;;;6.13;100.00;101478.44;8368370;28;20455;-49
2022/12/27 05:48:08;;;;;;;8.05;1.85;;;;;;;6.13;100.00;101473.06;8383239;28;20072;-48
2022/12/27 05:52:08;;;;;;;15.55;2.20;;;;;;;6.11;100.00;101474.13;8389115;28;20124;-50
2022/12/27 05:56:14;;;;;;;6.15;1.50;;;;;;;6.05;100.00;101470.00;8384162;28;20050;-51
2022/12/27 06:00:14;;;;;;;9.90;1.17;;;;;;;6.09;100.00;101482.28;8380896;28;20047;-52
2022/12/27 06:04:15;;;;;;;5.68;1.63;;;;;;;6.03;100.00;101493.34;8357724;28;20079;-48
2022/12/27 06:08:16;;;;;;;7.57;1.73;;;;;;;5.98;100.00;101482.88;8387561;28;20567;-52
2022/12/27 06:12:16;;;;;;;8.30;1.40;;;;;;;6.01;100.00;101500.66;8387466;28;20041;-48
2022/12/27 06:16:19;;;;;;;7.82;1.67;;;;;;;6.04;100.00;101492.44;8388714;28;20047;-49
2022/12/27 06:20:20;;;;;;;8.45;1.60;;;;;;;6.02;100.00;101488.97;8388002;28;20387;-50
2022/12/27 06:24:21;;;;;;;11.18;1.60;;;;;;;6.01;100.00;101492.59;8386761;28;20098;-49
2022/12/27 06:28:21;;;;;;;12.95;1.60;;;;;;;5.96;100.00;101498.22;8388168;28;20044;-49
2022/12/27 06:32:21;;;;;;;11.93;1.92;;;;;;;5.93;100.00;101503.78;8382838;28;20124;-52
2022/12/27 06:36:26;;;;;;;8.73;2.22;;;;;;;5.96;100.00;101508.97;8385034;28;20047;-50
2022/12/27 06:40:26;;;;;;;;;;;;;;;5.98;100.00;101506.19;8383105;28;20040;-50
2022/12/27 06:44:27;;;;;;;12.33;2.00;;;;;;;5.96;100.00;101508.09;8386636;28;19923;-51
2022/12/27 06:48:28;;;;;;;12.73;1.80;;;;;;;5.91;100.00;101510.16;8369573;28;20283;-49
2022/12/27 06:52:28;;;;;;;11.15;1.85;;;;;;;5.90;100.00;101516.50;8387309;28;20048;-49
2022/12/27 06:56:28;;;;;;;10.15;1.73;;;;;;;5.86;100.00;101518.47;8385589;28;20056;-50
2022/12/27 07:00:29;;;;;;;10.13;1.83;;;;;;;5.82;100.00;101518.72;8386497;28;20044;-49
2022/12/27 07:04:29;;;;;;;10.07;1.90;;;;;;;5.79;100.00;101518.88;8386545;28;20128;-50
2022/12/27 07:08:30;;;;;;;9.30;1.77;;;;;;;5.80;100.00;101525.97;8386296;28;20444;-50
2022/12/27 07:12:30;;;;;;;8.80;1.75;;;;;;;5.79;100.00;101526.91;8387168;28;20541;-53
2022/12/27 07:16:31;;;;;;;9.23;2.13;;;;;;;5.76;100.00;101529.75;8386759;28;20035;-51
2022/12/27 07:20:31;;;;;;;14.05;2.30;;;;;;;5.80;100.00;101539.41;8384501;28;20446;-51
2022/12/27 07:24:32;;;;;;;8.65;1.95;;;;;;;5.77;100.00;101544.94;8386635;28;20424;-50
2022/12/27 07:28:33;;;;;;;11.77;1.27;;;;;;;5.69;100.00;101553.41;8386160;28;20509;-50
2022/12/27 07:32:33;;;;;;;9.52;2.28;;;;;;;5.67;100.00;101565.16;8362892;28;20045;-50
2022/12/27 07:36:37;;;;;;;7.72;2.00;;;;;;;5.64;100.00;101559.94;8370058;28;20071;-50
2022/12/27 07:40:37;;;;;;;14.70;2.78;;;;;;;5.57;100.00;101562.13;8393510;28;20044;-49
2022/12/27 07:44:38;;;;;;;7.57;2.45;;;;;;;5.47;100.00;101577.00;8357523;28;20495;-50
2022/12/27 07:48:38;;;;;;;9.85;3.22;;;;;;;5.48;100.00;101576.03;8359853;28;20040;-51
2022/12/27 07:52:39;;;;;;;8.60;2.22;;;;;;;5.42;100.00;101580.84;8366272;28;20048;-50
2022/12/27 07:56:39;;;;;;;7.35;2.08;;;;;;;5.46;100.00;101587.78;8374821;28;20045;-51
2022/12/27 08:00:40;;;;;;;6.00;2.17;;;;;;;5.55;100.00;101592.66;8372329;28;20045;-52
2022/12/27 08:04:41;;;;;;;8.45;3.38;;;;;;;5.53;100.00;101594.56;8371526;28;20118;-54
2022/12/27 08:08:43;;;;;;;6.32;2.50;;;;;;;5.58;100.00;101603.22;8388129;28;20413;-50
2022/12/27 08:12:44;;;;;;;13.40;2.67;;;;;;;5.69;100.00;101606.19;8377030;28;20048;-53
2022/12/27 08:16:44;;;;;;;4.75;1.60;;;;;;;5.82;100.00;101596.53;8378943;28;20482;-51
2022/12/27 08:20:45;;;;;;;8.98;2.08;;;;;;;5.94;100.00;101611.97;8375175;28;20064;-50
2022/12/27 08:24:45;;;;;;;8.95;2.00;;;;;;;6.04;100.00;101608.69;8362670;28;20036;-50
2022/12/27 08:28:46;;;;;;;11.95;2.45;;;;;;;6.23;100.00;101619.28;8364051;28;20041;-51
2022/12/27 08:32:46;;;;;;;13.55;2.20;;;;;;;6.39;100.00;101616.56;8368513;28;20040;-51
2022/12/27 08:36:50;;;;;;;11.45;1.90;;;;;;;6.54;100.00;101605.84;8368397;28;20070;-52
2022/12/27 08:40:50;;;;;;;16.45;2.20;;;;;;;7.18;100.00;101602.88;8372421;28;20090;-50
2022/12/27 08:44:51;;;;;;;12.48;2.20;;;;;;;8.56;92.47;101602.06;8368104;28;20036;-50
2022/12/27 08:48:51;;;;;;;8.82;1.38;;;;;;;9.52;86.74;101610.72;8372262;28;20422;-51
2022/12/27 08:52:56;;;;;;;10.15;1.92;;;;;;;9.73;84.31;101603.81;8382606;28;20032;-50
2022/12/27 08:56:56;;;;;;;5.82;1.55;;;;;;;10.25;82.15;101599.13;8376727;28;20446;-50
2022/12/27 09:01:04;;;;;;;10.18;1.80;;;;;;;10.65;80.18;101608.72;8368583;28;20252;-53
2022/12/27 09:05:05;;;;;;;9.30;1.50;;;;;;;11.13;79.14;101607.69;8368814;28;20068;-53
2022/12/27 09:09:07;;;;;;;7.57;1.77;;;;;;;11.27;78.02;101615.63;8358759;28;20360;-53
2022/12/27 09:13:07;;;;;;;6.63;1.80;;;;;;;11.25;77.40;101622.13;8353696;28;20066;-52
2022/12/27 09:17:08;;;;;;;8.60;1.67;;;;;;;11.57;76.68;101613.25;8370063;28;20344;-51
2022/12/27 09:21:11;;;;;;;7.80;1.88;;;;;;;12.14;75.05;101609.63;8368606;28;20060;-51
2022/12/27 09:25:12;;;;;;;10.30;1.77;;;;;;;11.93;74.16;101610.34;8362875;28;20170;-52
2022/12/27 09:29:12;;;;;;;15.18;1.77;;;;;;;11.42;76.78;101611.75;8369824;28;20060;-51
2022/12/27 09:33:13;;;;;;;4.90;1.25;;;;;;;11.97;75.24;101615.53;8386318;28;20652;-52
2022/12/27 09:37:14;;;;;;;12.43;1.83;;;;;;;12.49;73.58;101613.03;8356677;28;20569;-53
2022/12/27 09:41:51;;;;;;;11.50;1.92;;;;;;;13.04;71.74;101611.06;8381904;28;20045;-51
2022/12/27 09:45:55;;;;;;;8.60;1.92;;;;;;;13.00;71.59;101608.72;8357440;28;20041;-50
2022/12/27 09:50:16;;;;;;;10.18;1.50;;;;;;;13.65;68.91;101617.50;8363720;28;20059;-54
2022/12/27 09:54:29;;;;;;;5.72;1.10;;;;;;;14.10;67.58;101612.59;8380157;28;20132;-50
2022/12/27 09:58:52;;;;;;;6.25;1.63;;;;;;;14.30;66.16;101606.28;8362864;28;20040;-53
2022/12/27 10:02:52;;;;;;;8.40;0.95;;;;;;;14.40;66.03;101605.31;8367418;28;20043;-50
2022/12/27 10:07:06;;;;;;;7.00;1.20;;;;;;;14.17;67.16;101603.75;8365725;28;20037;-50
2022/12/27 10:11:36;;;;;;;9.00;1.10;;;;;;;14.30;66.81;101612.56;8366433;28;20592;-51
2022/12/27 10:20:32;;;;;;;7.50;1.27;;;;;;;13.26;68.97;101610.06;8342260;27;20392;-50
2022/12/27 10:24:39;;;;;;;8.73;1.30;;;;;;;11.86;73.93;101611.84;8305396;28;20037;-48
2022/12/27 10:28:43;;;;;;;5.30;1.23;;;;;;;10.75;79.01;101607.06;8267253;28;20042;-49
2022/12/27 10:32:45;;;;;;;7.30;1.58;;;;;;;10.06;81.89;101612.19;8267512;28;20048;-50
2022/12/27 10:36:46;;;;;;;5.65;1.08;;;;;;;9.69;85.17;101608.56;8265057;28;20073;-50
2022/12/27 10:41:26;;;;;;;7.32;1.48;;;;;;;10.50;83.82;101603.59;8258974;28;20046;-49
2022/12/27 10:45:38;;;;;;;7.72;1.50;;;;;;;11.16;79.65;101607.47;8258282;28;20038;-51
2022/12/27 10:49:41;;;;;;;4.53;1.30;;;;;;;11.73;78.55;101602.09;8292529;28;20124;-52
2022/12/27 10:57:57;;;;;;;8.65;1.27;;;;;;;13.23;72.24;101605.78;8407382;27;20415;-48
2022/12/27 11:06:21;;;;;;;9.40;1.10;;;;;;;12.61;72.24;101598.44;8330268;27;20365;-49
2022/12/27 11:10:25;;;;;;;4.13;0.77;;;;;;;12.97;72.27;101603.53;8314985;28;20038;-48
2022/12/27 11:14:26;;;;;;;;;;;;;;;11.73;75.44;101602.97;8281967;28;20038;-48
2022/12/27 11:18:26;;;;;;;5.10;1.53;;;;;;;11.09;79.84;101600.81;8293275;28;19961;-48
2022/12/27 11:22:27;;;;;;;4.13;1.00;;;;;;;10.85;80.87;101602.66;8311409;28;20276;-52
2022/12/27 11:26:36;;;;;;;10.45;1.83;;;;;;;10.47;83.51;101607.38;8292042;28;20050;-50
2022/12/27 11:30:38;;;;;;;6.30;1.13;;;;;;;10.38;83.68;101593.66;8303452;28;20033;-48
2022/12/27 11:34:44;;;;;;;11.68;1.67;;;;;;;10.35;83.43;101592.06;8304383;28;20081;-49
2022/12/27 11:38:46;;;;;;;3.80;1.10;;;;;;;11.06;81.04;101603.75;8314510;28;20566;-51
2022/12/27 11:42:52;;;;;;;5.30;0.80;;;;;;;11.63;80.15;101596.56;8310410;28;20048;-49
2022/12/27 11:46:58;;;;;;;2.55;0.88;;;;;;;12.12;77.33;101587.19;8309244;28;20037;-49
2022/12/27 11:51:29;;;;;;;4.97;0.85;;;;;;;12.43;75.32;101584.56;8301355;28;20345;-52
2022/12/27 12:00:21;;;;;;;9.38;2.03;;;;;;;11.05;79.67;101587.63;8318873;28;20412;-48
2022/12/27 12:05:00;;;;;;;5.15;1.13;;;;;;;10.58;82.12;101577.69;8281829;28;20121;-49
2022/12/27 12:09:25;;;;;;;8.55;1.42;;;;;;;10.72;81.49;101582.06;8281639;28;20125;-53
2022/12/27 12:13:46;;;;;;;4.15;0.85;;;;;;;10.81;80.65;101574.13;8275297;28;20038;-49
2022/12/27 12:18:00;;;;;;;6.40;1.30;;;;;;;10.80;80.73;101572.38;8269554;28;20046;-51
2022/12/27 12:22:11;;;;;;;;;;;;;;;10.90;81.02;101568.03;8276486;28;20049;-50
2022/12/27 12:26:42;;;;;;;10.77;1.40;;;;;;;10.80;80.88;101566.97;8280264;28;19918;-49
2022/12/27 12:35:49;;;;;;;9.43;1.13;;;;;;;10.95;79.73;101559.56;8399275;27;20423;-49
2022/12/27 12:44:53;;;;;;;7.35;1.27;;;;;;;10.93;79.47;101547.97;8347812;27;20468;-50
2022/12/27 12:49:19;;;;;;;5.55;1.13;;;;;;;10.84;79.57;101552.25;8344735;28;20469;-49
2022/12/27 12:53:59;;;;;;;7.35;1.35;;;;;;;10.89;79.42;101541.94;8343884;28;20414;-52
2022/12/27 12:58:28;;;;;;;8.63;1.25;;;;;;;10.85;80.90;101543.16;8347089;28;20079;-49
2022/12/27 13:02:57;;;;;;;8.07;1.83;;;;;;;10.91;80.63;101531.84;8330845;28;20033;-50
2022/12/27 13:11:34;;;;;;;3.60;1.23;;;;;;;10.84;78.43;101513.50;8314582;28;20408;-49
2022/12/27 13:16:15;;;;;;;8.25;1.23;;;;;;;10.85;78.88;101510.69;8282101;28;20554;-49
2022/12/27 13:20:48;;;;;;;7.22;1.10;;;;;;;10.97;76.60;101504.31;8284249;28;20455;-49
2022/12/27 13:25:28;;;;;;;4.82;1.80;;;;;;;10.92;76.70;101495.69;8274077;28;20045;-52
2022/12/27 13:30:08;;;;;;;7.55;0.98;;;;;;;11.01;76.58;101494.97;8279650;28;20045;-51
2022/12/27 13:34:41;;;;;;;6.95;1.10;;;;;;;11.03;76.41;101490.31;8272752;28;20551;-49
2022/12/27 13:43:35;;;;;;;9.73;1.10;;;;;;;11.16;74.12;101474.84;8316458;28;20438;-52
2022/12/27 13:47:51;;;;;;;5.03;0.98;;;;;;;11.34;74.12;101470.69;8310737;28;20488;-51
2022/12/27 13:51:59;;;;;;;4.70;1.10;;;;;;;11.34;74.66;101478.78;8285707;28;20030;-52
2022/12/27 13:56:29;;;;;;;7.22;1.52;;;;;;;11.34;74.11;101476.09;8291885;28;20457;-52
2022/12/27 14:00:45;;;;;;;7.90;1.30;;;;;;;11.23;74.00;101465.25;8301703;28;20034;-50
2022/12/27 14:05:11;;;;;;;6.03;1.15;;;;;;;11.21;74.07;101463.66;8305298;28;20048;-50
2022/12/27 14:09:40;;;;;;;3.63;0.68;;;;;;;11.08;74.95;101469.19;8314056;28;20038;-50
2022/12/27 14:13:42;;;;;;;14.85;5.10;;;;;;;11.03;75.97;101470.50;8313827;28;20037;-50
2022/12/27 14:18:00;;;;;;;9.63;2.90;;;;;;;10.96;76.07;101469.28;8301736;28;20527;-50
2022/12/27 14:22:37;;;;;;;6.60;1.92;;;;;;;10.81;75.71;101470.47;8306996;28;20088;-49
2022/12/27 14:27:14;;;;;;;7.20;1.35;;;;;;;10.73;76.35;101472.91;8311496;28;20045;-50
2022/12/27 14:31:45;;;;;;;3.85;1.02;;;;;;;10.56;76.23;101466.09;8304100;28;20495;-50
2022/12/27 14:36:15;;;;;;;8.10;1.63;;;;;;;10.47;77.68;101480.31;8306371;28;20065;-52
2022/12/27 14:40:48;;;;;;;5.30;1.13;;;;;;;10.44;77.21;101479.69;8309158;28;20092;-51
2022/12/27 14:49:42;;;;;;;11.43;1.83;;;;;;;10.32;77.42;101462.56;8311976;28;20397;-49
2022/12/27 15:02:48;;;;;;;9.38;1.38;;;;;;;10.10;77.31;101466.97;8299919;27;20550;-49
2022/12/27 15:07:16;;;;;;;4.45;1.42;;;;;;;10.00;79.74;101469.44;8297846;28;20588;-49
2022/12/27 15:11:44;;;;;;;6.38;2.15;;;;;;;9.80;80.67;101462.81;8316790;28;20539;-51
2022/12/27 15:20:37;;;;;;;6.07;1.63;;;;;;;9.46;81.57;101458.16;8352171;27;20731;-51
2022/12/27 15:25:05;;;;;;;6.00;1.40;;;;;;;9.35;81.87;101465.31;8347167;28;20040;-49
2022/12/27 15:29:46;;;;;;;12.48;2.47;;;;;;;9.24;82.25;101471.47;8325683;28;20466;-49
2022/12/27 15:34:12;;;;;;;9.20;2.17;;;;;;;9.21;81.85;101457.34;8318126;28;20041;-50
2022/12/27 15:38:17;;;;;;;4.43;1.55;;;;;;;9.19;81.89;101453.88;8314544;28;20039;-50
2022/12/27 15:42:53;;;;;;;8.82;1.77;;;;;;;9.02;83.46;101444.28;8312153;28;20079;-49
2022/12/27 15:47:23;;;;;;;5.05;1.30;;;;;;;8.96;83.23;101427.66;8304319;28;20034;-49
2022/12/27 15:51:40;;;;;;;7.30;1.95;;;;;;;8.91;83.15;101425.28;8348410;28;20502;-52
2022/12/27 15:56:21;;;;;;;2.90;1.33;;;;;;;8.79;82.89;101433.38;8355533;28;20045;-50
2022/12/27 16:00:27;;;;;;;5.82;1.50;;;;;;;8.58;84.33;101422.28;8327403;28;20046;-49
2022/12/27 16:04:45;;;;;;;4.82;1.45;;;;;;;8.59;84.27;101420.41;8333351;28;20069;-50
2022/12/27 16:09:05;;;;;;;8.15;1.20;;;;;;;8.56;84.15;101428.72;8300460;28;20044;-49
2022/12/27 16:17:44;;;;;;;6.22;1.30;;;;;;;8.42;85.04;101416.19;8423047;27;20437;-51
2022/12/27 16:21:45;;;;;;;3.30;1.13;;;;;;;8.41;85.33;101419.84;8372210;28;20037;-48
2022/12/27 16:25:46;;;;;;;7.70;1.30;;;;;;;8.37;85.75;101428.25;8380286;28;20037;-48
2022/12/27 16:29:46;;;;;;;3.35;1.52;;;;;;;8.32;85.99;101423.16;8380727;28;20060;-49
2022/12/27 16:33:48;;;;;;;7.90;1.30;;;;;;;8.27;85.96;101443.31;8380370;28;20040;-49
2022/12/27 16:37:53;;;;;;;3.75;1.80;;;;;;;8.26;86.26;101430.81;8379952;28;20063;-49
2022/12/27 16:46:46;;;;;;;3.40;1.45;;;;;;;8.15;86.94;101427.94;8345382;27;20492;-50
2022/12/27 16:51:11;;;;;;;6.45;1.33;;;;;;;7.99;87.53;101428.97;8345919;28;20041;-52
2022/12/27 16:55:51;;;;;;;5.20;1.42;;;;;;;7.91;87.94;101420.56;8350729;28;20090;-48
2022/12/27 17:00:03;;;;;;;3.55;1.45;;;;;;;7.79;88.87;101415.97;8361800;28;20037;-48
2022/12/27 17:04:03;;;;;;;1.90;1.52;;;;;;;7.71;89.24;101423.69;8332742;28;20049;-49
2022/12/27 17:12:25;;;;;;;5.70;1.85;;;;;;;7.58;90.30;101428.16;8384724;27;20401;-49
2022/12/27 17:16:28;;;;;;;8.77;1.98;;;;;;;7.49;90.36;101426.03;8362781;28;20256;-50
2022/12/27 17:20:29;;;;;;;9.27;1.60;;;;;;;7.39;90.50;101422.22;8347942;28;20041;-51
2022/12/27 17:24:30;;;;;;;7.72;1.70;;;;;;;7.33;91.29;101428.00;8362736;28;20507;-51
2022/12/27 17:28:40;;;;;;;10.43;1.60;;;;;;;7.25;91.67;101429.44;8360902;28;20075;-52
2022/12/27 17:33:04;;;;;;;9.18;1.98;;;;;;;7.18;91.55;101415.53;8373811;28;20398;-49
2022/12/27 17:37:24;;;;;;;;;;;;;;;7.23;91.28;101421.44;8363770;28;20044;-50
2022/12/27 17:46:38;;;;;;;8.80;2.25;;;;;;;7.27;89.98;101401.50;8375309;28;20041;-49
2022/12/27 17:50:43;;;;;;;11.13;2.42;;;;;;;7.28;89.88;101392.44;8376528;28;20164;-51
2022/12/27 17:59:11;;;;;;;9.20;2.10;;;;;;;7.15;90.47;101391.50;8375964;28;19920;-51
2022/12/27 18:03:13;;;;;;;8.43;2.08;;;;;;;7.09;90.96;101405.34;8380248;28;20068;-50
2022/12/27 18:07:20;;;;;;;10.23;1.98;;;;;;;7.06;91.22;101397.47;8377073;28;20036;-48
2022/12/27 18:11:21;;;;;;;5.05;1.98;;;;;;;6.99;91.93;101387.22;8376211;28;20041;-52
2022/12/27 18:15:24;;;;;;;11.55;2.40;;;;;;;6.87;92.59;101390.66;8374036;28;20549;-49
2022/12/27 18:19:30;;;;;;;11.85;2.15;;;;;;;6.86;93.30;101379.03;8378499;28;20037;-49
2022/12/27 18:23:41;;;;;;;12.07;2.30;;;;;;;6.94;92.12;101374.06;8355239;28;20044;-52
2022/12/27 18:27:41;;;;;;;12.07;2.22;;;;;;;6.94;92.33;101366.00;8356577;28;20045;-50
2022/12/27 18:31:47;;;;;;;8.02;2.25;;;;;;;6.95;92.00;101356.97;8354549;28;20164;-51
2022/12/27 18:35:50;;;;;;;14.80;3.03;;;;;;;6.91;91.82;101346.50;8375357;28;20045;-52
2022/12/27 18:39:56;;;;;;;6.35;2.80;;;;;;;6.87;91.89;101353.91;8356303;28;20049;-53
2022/12/27 18:43:59;;;;;;;17.63;4.07;;;;;;;6.76;92.07;101345.66;8355034;28;20325;-51
2022/12/27 18:48:07;;;;;;;9.10;2.80;;;;;;;6.71;91.89;101358.50;8351293;28;20123;-50
2022/12/27 18:52:13;;;;;;;10.93;2.13;;;;;;;6.71;92.03;101346.91;8348463;28;20055;-51
2022/12/27 18:56:23;;;;;;;3.30;1.10;;;;;;;6.75;91.53;101337.69;8351845;28;20499;-50
2022/12/27 19:00:25;;;;;;;10.18;2.45;;;;;;;6.84;91.59;101327.22;8349620;28;20182;-52
2022/12/27 19:04:29;;;;;;;7.90;2.38;;;;;;;6.69;92.50;101332.69;8344566;28;20046;-54
2022/12/27 19:08:34;;;;;;;12.52;2.90;;;;;;;6.62;92.34;101321.44;8354416;28;20407;-52
2022/12/27 19:12:38;;;;;;;10.13;2.75;;;;;;;6.52;93.29;101320.31;8355001;28;20056;-52
2022/12/27 19:16:38;;;;;;;11.95;2.70;;;;;;;6.52;93.63;101314.94;8353710;28;20060;-51
2022/12/27 19:20:39;;;;;;;10.57;2.08;;;;;;;6.57;92.62;101307.47;8353818;28;20037;-50
2022/12/27 19:24:40;;;;;;;8.02;1.98;;;;;;;6.65;92.36;101305.13;8353101;28;20065;-53
2022/12/27 19:28:42;;;;;;;6.07;1.38;;;;;;;6.73;91.56;101275.09;8354781;28;20048;-50
2022/12/27 19:32:43;;;;;;;12.20;1.98;;;;;;;6.73;91.03;101285.84;8353966;28;20060;-50
2022/12/27 19:36:44;;;;;;;6.78;1.83;;;;;;;6.66;91.81;101296.13;8354048;28;20120;-52
2022/12/27 19:40:48;;;;;;;5.55;2.63;;;;;;;6.62;91.93;101278.47;8354327;28;20156;-51
2022/12/27 19:44:49;;;;;;;7.53;2.40;;;;;;;6.58;92.68;101292.19;8347468;28;20534;-53
2022/12/27 19:48:49;;;;;;;12.63;2.45;;;;;;;6.49;92.69;101290.94;8354528;28;20422;-49
2022/12/27 19:52:51;;;;;;;4.68;1.40;;;;;;;6.40;93.36;101278.09;8350969;28;20131;-49
2022/12/27 19:56:52;;;;;;;7.32;1.70;;;;;;;6.34;94.95;101275.78;8349854;28;20124;-49
2022/12/27 20:00:52;;;;;;;13.65;2.20;;;;;;;6.25;94.35;101267.47;8347955;28;20060;-53
2022/12/27 20:04:53;;;;;;;7.93;2.92;;;;;;;6.23;94.99;101270.25;8374005;28;20040;-51
2022/12/27 20:08:53;;;;;;;23.65;5.68;;;;;;;6.27;93.98;101269.09;8353627;28;20072;-52
2022/12/27 20:12:54;;;;;;;12.80;2.35;;;;;;;6.39;92.76;101265.63;8353219;28;20098;-50
2022/12/27 20:16:54;;;;;;;13.02;2.80;;;;;;;6.34;92.55;101265.03;8346992;28;20542;-51
2022/12/27 20:20:56;;;;;;;10.10;3.03;;;;;;;6.30;93.03;101260.84;8347481;28;20090;-51
2022/12/27 20:24:56;;;;;;;7.00;2.28;;;;;;;6.25;93.29;101257.56;8345252;28;20498;-51
2022/12/27 20:28:58;;;;;;;9.95;2.10;;;;;;;6.22;92.75;101241.66;8347990;28;20636;-48
2022/12/27 20:32:59;;;;;;;11.13;2.65;;;;;;;6.29;91.95;101243.00;8328147;28;20569;-53
2022/12/27 20:36:59;;;;;;;6.18;2.10;;;;;;;6.14;92.88;101249.34;8320613;28;20041;-51
2022/12/27 20:41:10;;;;;;;7.88;1.73;;;;;;;6.10;93.06;101239.72;8321164;28;20571;-53
2022/12/27 20:45:11;;;;;;;6.15;1.83;;;;;;;6.08;93.15;101236.28;8320946;28;20049;-53
2022/12/27 20:49:11;;;;;;;6.93;2.17;;;;;;;6.07;92.73;101225.66;8323215;28;20095;-49
2022/12/27 20:53:12;;;;;;;8.68;2.33;;;;;;;6.22;92.14;101228.22;8351847;28;20057;-50
2022/12/27 20:57:12;;;;;;;4.68;1.63;;;;;;;6.16;92.04;101219.72;8352103;28;20167;-50
2022/12/27 21:01:15;;;;;;;10.45;2.05;;;;;;;6.22;91.54;101213.97;8352299;28;20044;-53
2022/12/27 21:05:16;;;;;;;6.25;1.95;;;;;;;6.35;90.86;101206.84;8356047;28;20033;-51
2022/12/27 21:09:16;;;;;;;4.63;1.70;;;;;;;6.32;90.59;101215.97;8347317;28;20531;-50
2022/12/27 21:13:17;;;;;;;8.32;2.08;;;;;;;6.34;90.41;101197.06;8352894;28;20037;-51
2022/12/27 21:17:18;;;;;;;4.80;1.85;;;;;;;6.32;90.45;101202.53;8352650;28;20116;-51
2022/12/27 21:21:21;;;;;;;5.68;1.77;;;;;;;6.27;91.32;101188.53;8352528;28;20033;-49
2022/12/27 21:25:21;;;;;;;7.78;1.80;;;;;;;6.34;91.06;101180.97;8348393;28;20311;-48
2022/12/27 21:29:22;;;;;;;4.43;2.03;;;;;;;6.43;90.73;101166.94;8353417;28;20041;-49
2022/12/27 21:33:22;;;;;;;4.88;1.60;;;;;;;6.53;90.13;101165.38;8351282;28;20041;-48
2022/12/27 21:37:23;;;;;;;5.80;1.40;;;;;;;6.62;89.69;101165.63;8352687;28;20048;-48
2022/12/27 21:41:26;;;;;;;7.38;1.60;;;;;;;6.79;89.01;101168.09;8353517;28;20044;-49
2022/12/27 21:45:27;;;;;;;2.90;1.40;;;;;;;6.89;88.51;101158.44;8365309;28;20525;-50
2022/12/27 21:49:27;;;;;;;5.35;1.60;;;;;;;6.97;88.08;101145.38;8377801;28;20473;-50
2022/12/27 21:53:28;;;;;;;7.68;2.60;;;;;;;7.00;87.99;101137.09;8352481;28;20494;-49
2022/12/27 21:57:28;;;;;;;5.35;1.50;;;;;;;7.11;87.06;101129.16;8356862;28;20048;-50